CHICAGO AURORA MUNICIPAL, IL, United States (KARR) 41-46N 088-28W 215M
Wind: from the S (180 degrees) at 6 MPH (5 KT):0
Visibility: 7 mile(s):0
Sky conditions: mostly clear
Temperature: 75.0 F (23.9 C)
Dew Point: 69.1 F (20.6 C)
Relative Humidity: 81%
Pressure (altimeter): 30.18 in. Hg (1022 hPa)
ob: KARR 191134Z AUTO 18005KT 7SM FEW002 FEW100 24/21 A3018 RMK AO2 T02390206
Raw METAR:KARR 191134Z AUTO 18005KT 7SM FEW002 FEW100 24/21 A3018 RMK AO2 T02390206
cycle: 11
Back to top

CHICAGO/WEST CH DUPAGE, IL, United States (KDPA) 41-54N 88-15W 230M
Wind: from the S (180 degrees) at 7 MPH (6 KT):0
Visibility: 10 mile(s):0
Sky conditions: clear
Temperature: 73.0 F (22.8 C)
Dew Point: 68.0 F (20.0 C)
Relative Humidity: 84%
Pressure (altimeter): 30.15 in. Hg (1020 hPa)
ob: KDPA 191052Z 18006KT 10SM CLR 23/20 A3015 RMK AO2 SLP205 T02280200
Raw METAR:KDPA 191052Z 18006KT 10SM CLR 23/20 A3015 RMK AO2 SLP205 T02280200
cycle: 11
Back to top

De Kalb, De Kalb Taylor Municipal Airport, IL, United States (KDKB) 41-55-55N 088-42-30W
Wind: from the S (180 degrees) at 10 MPH (9 KT):0
Visibility: 10 mile(s):0
Sky conditions: clear
Temperature: 71.8 F (22.1 C)
Dew Point: 66.4 F (19.1 C)
Relative Humidity: 83%
Pressure (altimeter): 30.19 in. Hg (1022 hPa)
ob: KDKB 191135Z AUTO 18009KT 10SM CLR 22/19 A3019 RMK AO2 T02210191
Raw METAR:KDKB 191135Z AUTO 18009KT 10SM CLR 22/19 A3019 RMK AO2 T02210191
cycle: 11
Back to top

Joliet, Joliet Regional Airport, IL, United States (KJOT) 41-31-05N 088-10-31W
Wind: Calm:0
Visibility: 10 mile(s):0
Sky conditions: clear
Temperature: 77.0 F (25.0 C)
Dew Point: 69.8 F (21.0 C)
Relative Humidity: 78%
Pressure (altimeter): 30.18 in. Hg (1022 hPa)
ob: KJOT 191135Z AUTO 00000KT 10SM CLR 25/21 A3018 RMK AO2 T02500210
Raw METAR:KJOT 191135Z AUTO 00000KT 10SM CLR 25/21 A3018 RMK AO2 T02500210
cycle: 11
Back to top

Kankakee, Greater Kankakee Airport, IL, United States (KIKK) 41-04-17N 087-50-47W
Wind: from the S (190 degrees) at 5 MPH (4 KT):0
Visibility: 10 mile(s):0
Sky conditions: partly cloudy
Temperature: 75.7 F (24.3 C)
Dew Point: 68.9 F (20.5 C)
Relative Humidity: 79%
Pressure (altimeter): 30.2 in. Hg (1022 hPa)
ob: KIKK 191135Z AUTO 19004KT 10SM SCT100 24/21 A3020 RMK AO2 T02430205
Raw METAR:KIKK 191135Z AUTO 19004KT 10SM SCT100 24/21 A3020 RMK AO2 T02430205
cycle: 11
Back to top

Morris, Morris Municipal-James R Washburn Field Airport, IL, United States (KC09) 41-25-31N 088-25-07W
Wind: from the S (190 degrees) at 5 MPH (4 KT):0
Visibility: 10 mile(s):0
Sky conditions: partly cloudy
Temperature: 75.4 F (24.1 C)
Dew Point: 69.8 F (21.0 C)
Relative Humidity: 82%
Pressure (altimeter): 30.17 in. Hg (1021 hPa)
ob: KC09 191135Z AUTO 19004KT 10SM SCT090 24/21 A3017 RMK AO2 T02410210
Raw METAR:KC09 191135Z AUTO 19004KT 10SM SCT090 24/21 A3017 RMK AO2 T02410210
cycle: 11
Back to top

Peru, Illinois Valley Regional-Walter A Duncan Field Airport, IL, United States (KVYS) 41-21-07N 089-09-11W
Wind: from the SSE (160 degrees) at 8 MPH (7 KT):0
Visibility: 10 mile(s):0
Sky conditions: partly cloudy
Temperature: 73.4 F (23.0 C)
Dew Point: 69.4 F (20.8 C)
Relative Humidity: 87%
Pressure (altimeter): 30.17 in. Hg (1021 hPa)
ob: KVYS 191135Z AUTO 16007KT 10SM SCT110 23/21 A3017 RMK AO2 T02300208
Raw METAR:KVYS 191135Z AUTO 16007KT 10SM SCT110 23/21 A3017 RMK AO2 T02300208
cycle: 11
Back to top

Rochelle, Rochelle Municipal-Koritz Field Airport, IL, United States (KRPJ) 41-53-35N 089-04-42W
Wind: from the S (180 degrees) at 6 MPH (5 KT):0
Visibility: 7 mile(s):0
Sky conditions: partly cloudy
Temperature: 72.1 F (22.3 C)
Dew Point: 68.2 F (20.1 C)
Relative Humidity: 87%
Pressure (altimeter): 30.17 in. Hg (1021 hPa)
ob: KRPJ 191135Z AUTO 18005KT 7SM SCT002 22/20 A3017 RMK AO2 T02230201
Raw METAR:KRPJ 191135Z AUTO 18005KT 7SM SCT002 22/20 A3017 RMK AO2 T02230201
cycle: 11
Back to top